sensor_id;sensor_type;location;lat;lon;timestamp;P1;durP1;ratioP1;P2;durP2;ratioP2
53299;SDS011;39187;48.476;8.310;2023-02-26T00:00:11;5.93;;;2.33;;
53299;SDS011;39187;48.476;8.310;2023-02-26T00:02:40;2.80;;;2.70;;
53299;SDS011;39187;48.476;8.310;2023-02-26T00:05:06;2.17;;;2.07;;
53299;SDS011;39187;48.476;8.310;2023-02-26T00:07:33;2.30;;;2.20;;
53299;SDS011;39187;48.476;8.310;2023-02-26T00:09:59;2.23;;;2.10;;
53299;SDS011;39187;48.476;8.310;2023-02-26T00:12:27;2.67;;;2.47;;
53299;SDS011;39187;48.476;8.310;2023-02-26T00:14:53;2.60;;;2.40;;
53299;SDS011;39187;48.476;8.310;2023-02-26T00:17:30;2.00;;;1.90;;
53299;SDS011;39187;48.476;8.310;2023-02-26T00:20:27;3.03;;;2.00;;
53299;SDS011;39187;48.476;8.310;2023-02-26T00:22:53;2.43;;;2.23;;
53299;SDS011;39187;48.476;8.310;2023-02-26T00:25:19;2.23;;;2.00;;
53299;SDS011;39187;48.476;8.310;2023-02-26T00:27:45;2.03;;;1.73;;
53299;SDS011;39187;48.476;8.310;2023-02-26T00:30:11;2.83;;;2.63;;
53299;SDS011;39187;48.476;8.310;2023-02-26T00:32:38;3.37;;;2.47;;
53299;SDS011;39187;48.476;8.310;2023-02-26T00:35:07;2.17;;;2.07;;
53299;SDS011;39187;48.476;8.310;2023-02-26T00:40:43;4.87;;;2.47;;
53299;SDS011;39187;48.476;8.310;2023-02-26T00:43:20;2.00;;;1.63;;
53299;SDS011;39187;48.476;8.310;2023-02-26T00:46:02;2.27;;;2.17;;
53299;SDS011;39187;48.476;8.310;2023-02-26T00:52:04;3.00;;;2.90;;
53299;SDS011;39187;48.476;8.310;2023-02-26T00:54:13;3.07;;;2.87;;
53299;SDS011;39187;48.476;8.310;2023-02-26T00:56:47;2.60;;;2.50;;
53299;SDS011;39187;48.476;8.310;2023-02-26T00:59:14;2.20;;;2.10;;
53299;SDS011;39187;48.476;8.310;2023-02-26T01:01:40;2.43;;;2.20;;
53299;SDS011;39187;48.476;8.310;2023-02-26T01:04:07;2.30;;;2.20;;
53299;SDS011;39187;48.476;8.310;2023-02-26T01:06:34;2.30;;;2.20;;
53299;SDS011;39187;48.476;8.310;2023-02-26T01:09:16;2.60;;;2.50;;
53299;SDS011;39187;48.476;8.310;2023-02-26T01:11:59;2.33;;;2.23;;
53299;SDS011;39187;48.476;8.310;2023-02-26T01:14:26;2.53;;;2.33;;
53299;SDS011;39187;48.476;8.310;2023-02-26T01:16:56;2.40;;;1.60;;
53299;SDS011;39187;48.476;8.310;2023-02-26T01:19:28;6.37;;;2.40;;
53299;SDS011;39187;48.476;8.310;2023-02-26T01:22:21;2.20;;;2.10;;
53299;SDS011;39187;48.476;8.310;2023-02-26T01:24:48;2.87;;;2.30;;
53299;SDS011;39187;48.476;8.310;2023-02-26T01:27:20;2.30;;;2.20;;
53299;SDS011;39187;48.476;8.310;2023-02-26T01:29:46;3.17;;;2.67;;
53299;SDS011;39187;48.476;8.310;2023-02-26T01:32:17;2.47;;;2.27;;
53299;SDS011;39187;48.476;8.310;2023-02-26T01:40:35;2.57;;;2.37;;
53299;SDS011;39187;48.476;8.310;2023-02-26T01:43:16;2.90;;;2.40;;
53299;SDS011;39187;48.476;8.310;2023-02-26T01:48:52;2.93;;;2.30;;
53299;SDS011;39187;48.476;8.310;2023-02-26T01:51:39;2.20;;;2.10;;
53299;SDS011;39187;48.476;8.310;2023-02-26T01:54:10;6.20;;;2.00;;
53299;SDS011;39187;48.476;8.310;2023-02-26T01:56:36;2.27;;;2.17;;
53299;SDS011;39187;48.476;8.310;2023-02-26T01:59:04;2.73;;;2.50;;
53299;SDS011;39187;48.476;8.310;2023-02-26T02:01:32;3.10;;;2.23;;
53299;SDS011;39187;48.476;8.310;2023-02-26T02:03:58;2.80;;;2.53;;
53299;SDS011;39187;48.476;8.310;2023-02-26T02:06:25;5.70;;;2.50;;
53299;SDS011;39187;48.476;8.310;2023-02-26T02:08:54;3.93;;;2.83;;
53299;SDS011;39187;48.476;8.310;2023-02-26T02:11:20;4.50;;;2.77;;
53299;SDS011;39187;48.476;8.310;2023-02-26T02:16:42;2.53;;;2.40;;
53299;SDS011;39187;48.476;8.310;2023-02-26T02:28:32;2.63;;;2.43;;
53299;SDS011;39187;48.476;8.310;2023-02-26T02:31:19;6.43;;;2.30;;
53299;SDS011;39187;48.476;8.310;2023-02-26T02:38:55;6.73;;;2.27;;
53299;SDS011;39187;48.476;8.310;2023-02-26T02:41:29;2.30;;;2.00;;
53299;SDS011;39187;48.476;8.310;2023-02-26T02:44:01;2.97;;;2.03;;
53299;SDS011;39187;48.476;8.310;2023-02-26T02:46:32;3.93;;;2.10;;
53299;SDS011;39187;48.476;8.310;2023-02-26T02:49:03;4.20;;;2.67;;
53299;SDS011;39187;48.476;8.310;2023-02-26T02:51:37;2.93;;;2.83;;
53299;SDS011;39187;48.476;8.310;2023-02-26T02:54:30;2.20;;;2.10;;
53299;SDS011;39187;48.476;8.310;2023-02-26T02:57:22;4.30;;;2.20;;
53299;SDS011;39187;48.476;8.310;2023-02-26T02:59:55;2.03;;;1.93;;
53299;SDS011;39187;48.476;8.310;2023-02-26T03:02:30;2.27;;;2.17;;
53299;SDS011;39187;48.476;8.310;2023-02-26T03:05:01;2.47;;;2.37;;
53299;SDS011;39187;48.476;8.310;2023-02-26T03:07:27;1.67;;;1.57;;
53299;SDS011;39187;48.476;8.310;2023-02-26T03:09:57;2.27;;;2.17;;
53299;SDS011;39187;48.476;8.310;2023-02-26T03:12:24;7.30;;;2.97;;
53299;SDS011;39187;48.476;8.310;2023-02-26T03:14:51;3.50;;;2.17;;
53299;SDS011;39187;48.476;8.310;2023-02-26T03:20:18;2.90;;;2.10;;
53299;SDS011;39187;48.476;8.310;2023-02-26T03:22:49;3.27;;;2.50;;
53299;SDS011;39187;48.476;8.310;2023-02-26T03:25:29;1.87;;;1.87;;
53299;SDS011;39187;48.476;8.310;2023-02-26T03:28:10;7.50;;;1.90;;
53299;SDS011;39187;48.476;8.310;2023-02-26T03:35:53;2.50;;;2.20;;
53299;SDS011;39187;48.476;8.310;2023-02-26T03:38:24;2.53;;;2.43;;
53299;SDS011;39187;48.476;8.310;2023-02-26T03:41:02;4.03;;;1.57;;
53299;SDS011;39187;48.476;8.310;2023-02-26T03:43:34;1.83;;;1.53;;
53299;SDS011;39187;48.476;8.310;2023-02-26T03:46:04;3.00;;;1.80;;
53299;SDS011;39187;48.476;8.310;2023-02-26T03:48:33;2.80;;;2.20;;
53299;SDS011;39187;48.476;8.310;2023-02-26T03:51:02;1.73;;;1.63;;
53299;SDS011;39187;48.476;8.310;2023-02-26T03:53:34;2.80;;;2.03;;
53299;SDS011;39187;48.476;8.310;2023-02-26T03:56:11;2.20;;;2.10;;
53299;SDS011;39187;48.476;8.310;2023-02-26T03:58:44;6.00;;;1.93;;
53299;SDS011;39187;48.476;8.310;2023-02-26T04:01:18;7.07;;;2.00;;
53299;SDS011;39187;48.476;8.310;2023-02-26T04:03:56;2.10;;;2.00;;
53299;SDS011;39187;48.476;8.310;2023-02-26T04:06:26;3.63;;;2.00;;
53299;SDS011;39187;48.476;8.310;2023-02-26T04:08:53;2.93;;;1.90;;
53299;SDS011;39187;48.476;8.310;2023-02-26T04:11:20;3.83;;;2.90;;
53299;SDS011;39187;48.476;8.310;2023-02-26T04:13:47;6.13;;;2.33;;
53299;SDS011;39187;48.476;8.310;2023-02-26T04:16:14;5.07;;;3.20;;
53299;SDS011;39187;48.476;8.310;2023-02-26T04:18:41;3.47;;;1.93;;
53299;SDS011;39187;48.476;8.310;2023-02-26T04:21:09;3.33;;;2.27;;
53299;SDS011;39187;48.476;8.310;2023-02-26T04:23:39;3.13;;;2.13;;
53299;SDS011;39187;48.476;8.310;2023-02-26T04:26:04;3.10;;;2.90;;
53299;SDS011;39187;48.476;8.310;2023-02-26T04:28:30;2.20;;;2.10;;
53299;SDS011;39187;48.476;8.310;2023-02-26T04:30:56;3.63;;;2.67;;
53299;SDS011;39187;48.476;8.310;2023-02-26T04:33:21;4.03;;;2.10;;
53299;SDS011;39187;48.476;8.310;2023-02-26T04:35:47;2.70;;;2.17;;
53299;SDS011;39187;48.476;8.310;2023-02-26T04:38:13;4.30;;;2.07;;
53299;SDS011;39187;48.476;8.310;2023-02-26T04:40:39;4.83;;;2.20;;
53299;SDS011;39187;48.476;8.310;2023-02-26T04:43:04;2.50;;;2.40;;
53299;SDS011;39187;48.476;8.310;2023-02-26T04:45:30;4.27;;;2.50;;
53299;SDS011;39187;48.476;8.310;2023-02-26T04:47:56;2.53;;;2.43;;
53299;SDS011;39187;48.476;8.310;2023-02-26T04:50:21;2.93;;;2.70;;
53299;SDS011;39187;48.476;8.310;2023-02-26T04:52:47;3.37;;;2.50;;
53299;SDS011;39187;48.476;8.310;2023-02-26T04:55:13;2.50;;;2.40;;
53299;SDS011;39187;48.476;8.310;2023-02-26T04:57:38;2.27;;;2.17;;
53299;SDS011;39187;48.476;8.310;2023-02-26T05:00:04;2.80;;;2.60;;
53299;SDS011;39187;48.476;8.310;2023-02-26T05:02:32;4.07;;;2.60;;
53299;SDS011;39187;48.476;8.310;2023-02-26T05:04:58;3.27;;;3.07;;
53299;SDS011;39187;48.476;8.310;2023-02-26T05:07:23;3.93;;;2.40;;
53299;SDS011;39187;48.476;8.310;2023-02-26T05:09:49;4.13;;;2.63;;
53299;SDS011;39187;48.476;8.310;2023-02-26T05:12:15;8.60;;;3.13;;
53299;SDS011;39187;48.476;8.310;2023-02-26T05:14:40;4.20;;;3.20;;
53299;SDS011;39187;48.476;8.310;2023-02-26T05:17:06;2.93;;;2.73;;
53299;SDS011;39187;48.476;8.310;2023-02-26T05:19:32;3.33;;;3.13;;
53299;SDS011;39187;48.476;8.310;2023-02-26T05:21:57;4.27;;;3.50;;
53299;SDS011;39187;48.476;8.310;2023-02-26T05:24:23;3.10;;;2.90;;
53299;SDS011;39187;48.476;8.310;2023-02-26T05:26:49;11.23;;;3.60;;
53299;SDS011;39187;48.476;8.310;2023-02-26T05:29:14;7.70;;;3.77;;
53299;SDS011;39187;48.476;8.310;2023-02-26T05:31:40;4.20;;;3.63;;
53299;SDS011;39187;48.476;8.310;2023-02-26T05:34:06;4.13;;;3.83;;
53299;SDS011;39187;48.476;8.310;2023-02-26T05:36:33;19.00;;;3.83;;
53299;SDS011;39187;48.476;8.310;2023-02-26T05:38:59;11.40;;;3.60;;
53299;SDS011;39187;48.476;8.310;2023-02-26T05:41:24;4.13;;;3.30;;
53299;SDS011;39187;48.476;8.310;2023-02-26T05:43:50;13.17;;;4.37;;
53299;SDS011;39187;48.476;8.310;2023-02-26T05:46:16;4.07;;;3.77;;
53299;SDS011;39187;48.476;8.310;2023-02-26T05:48:41;9.83;;;3.63;;
53299;SDS011;39187;48.476;8.310;2023-02-26T05:51:07;4.13;;;3.83;;
53299;SDS011;39187;48.476;8.310;2023-02-26T05:53:34;5.90;;;3.47;;
53299;SDS011;39187;48.476;8.310;2023-02-26T05:55:59;3.37;;;3.17;;
53299;SDS011;39187;48.476;8.310;2023-02-26T05:58:25;2.80;;;2.60;;
53299;SDS011;39187;48.476;8.310;2023-02-26T06:00:51;4.37;;;3.93;;
53299;SDS011;39187;48.476;8.310;2023-02-26T06:03:17;3.13;;;2.93;;
53299;SDS011;39187;48.476;8.310;2023-02-26T06:05:43;5.03;;;3.70;;
53299;SDS011;39187;48.476;8.310;2023-02-26T06:08:08;3.50;;;3.20;;
53299;SDS011;39187;48.476;8.310;2023-02-26T06:10:36;3.93;;;3.50;;
53299;SDS011;39187;48.476;8.310;2023-02-26T06:13:01;4.73;;;3.60;;
53299;SDS011;39187;48.476;8.310;2023-02-26T06:15:29;4.60;;;3.90;;
53299;SDS011;39187;48.476;8.310;2023-02-26T06:17:54;3.87;;;3.57;;
53299;SDS011;39187;48.476;8.310;2023-02-26T06:20:20;9.23;;;3.80;;
53299;SDS011;39187;48.476;8.310;2023-02-26T06:22:45;3.20;;;3.00;;
53299;SDS011;39187;48.476;8.310;2023-02-26T06:25:11;5.10;;;3.37;;
53299;SDS011;39187;48.476;8.310;2023-02-26T06:27:37;5.17;;;3.60;;
53299;SDS011;39187;48.476;8.310;2023-02-26T06:30:03;5.83;;;3.90;;
53299;SDS011;39187;48.476;8.310;2023-02-26T06:32:29;3.70;;;3.50;;
53299;SDS011;39187;48.476;8.310;2023-02-26T06:34:55;12.90;;;4.47;;
53299;SDS011;39187;48.476;8.310;2023-02-26T06:37:20;4.03;;;3.73;;
53299;SDS011;39187;48.476;8.310;2023-02-26T06:39:46;4.77;;;3.93;;
53299;SDS011;39187;48.476;8.310;2023-02-26T06:42:12;4.03;;;3.67;;
53299;SDS011;39187;48.476;8.310;2023-02-26T06:44:37;9.10;;;3.83;;
53299;SDS011;39187;48.476;8.310;2023-02-26T06:47:03;4.33;;;3.93;;
53299;SDS011;39187;48.476;8.310;2023-02-26T06:49:29;5.10;;;4.00;;
53299;SDS011;39187;48.476;8.310;2023-02-26T06:51:55;6.33;;;3.33;;
53299;SDS011;39187;48.476;8.310;2023-02-26T06:54:20;8.17;;;3.97;;
53299;SDS011;39187;48.476;8.310;2023-02-26T06:56:46;2.23;;;2.13;;
53299;SDS011;39187;48.476;8.310;2023-02-26T06:59:12;3.67;;;3.23;;
53299;SDS011;39187;48.476;8.310;2023-02-26T07:01:39;11.20;;;3.67;;
53299;SDS011;39187;48.476;8.310;2023-02-26T07:04:05;2.87;;;2.67;;
53299;SDS011;39187;48.476;8.310;2023-02-26T07:06:31;6.10;;;3.27;;
53299;SDS011;39187;48.476;8.310;2023-02-26T07:08:57;4.17;;;3.80;;
53299;SDS011;39187;48.476;8.310;2023-02-26T07:11:22;18.77;;;3.97;;
53299;SDS011;39187;48.476;8.310;2023-02-26T07:13:49;3.63;;;3.33;;
53299;SDS011;39187;48.476;8.310;2023-02-26T07:16:16;3.70;;;3.50;;
53299;SDS011;39187;48.476;8.310;2023-02-26T07:18:41;5.03;;;3.10;;
53299;SDS011;39187;48.476;8.310;2023-02-26T07:21:07;2.77;;;2.67;;
53299;SDS011;39187;48.476;8.310;2023-02-26T07:23:33;3.20;;;3.00;;
53299;SDS011;39187;48.476;8.310;2023-02-26T07:25:59;5.23;;;3.00;;
53299;SDS011;39187;48.476;8.310;2023-02-26T07:28:24;7.07;;;2.70;;
53299;SDS011;39187;48.476;8.310;2023-02-26T07:30:52;6.00;;;3.70;;
53299;SDS011;39187;48.476;8.310;2023-02-26T07:33:19;2.87;;;2.47;;
53299;SDS011;39187;48.476;8.310;2023-02-26T07:35:45;6.83;;;3.27;;
53299;SDS011;39187;48.476;8.310;2023-02-26T07:38:11;4.33;;;3.20;;
53299;SDS011;39187;48.476;8.310;2023-02-26T07:40:37;3.33;;;2.80;;
53299;SDS011;39187;48.476;8.310;2023-02-26T07:43:03;8.97;;;2.73;;
53299;SDS011;39187;48.476;8.310;2023-02-26T07:45:28;4.13;;;2.80;;
53299;SDS011;39187;48.476;8.310;2023-02-26T07:47:54;3.43;;;2.90;;
53299;SDS011;39187;48.476;8.310;2023-02-26T07:50:20;4.13;;;2.93;;
53299;SDS011;39187;48.476;8.310;2023-02-26T07:52:49;7.50;;;2.73;;
53299;SDS011;39187;48.476;8.310;2023-02-26T07:55:16;2.37;;;2.27;;
53299;SDS011;39187;48.476;8.310;2023-02-26T07:57:42;2.40;;;2.20;;
53299;SDS011;39187;48.476;8.310;2023-02-26T08:00:07;4.37;;;1.67;;
53299;SDS011;39187;48.476;8.310;2023-02-26T08:02:34;1.90;;;1.80;;
53299;SDS011;39187;48.476;8.310;2023-02-26T08:04:59;2.70;;;2.60;;
53299;SDS011;39187;48.476;8.310;2023-02-26T08:07:25;2.23;;;2.03;;
53299;SDS011;39187;48.476;8.310;2023-02-26T08:09:50;2.00;;;1.90;;
53299;SDS011;39187;48.476;8.310;2023-02-26T08:12:16;2.70;;;2.20;;
53299;SDS011;39187;48.476;8.310;2023-02-26T08:14:42;3.90;;;2.10;;
53299;SDS011;39187;48.476;8.310;2023-02-26T08:17:07;4.67;;;1.93;;
53299;SDS011;39187;48.476;8.310;2023-02-26T08:19:33;2.20;;;1.97;;
53299;SDS011;39187;48.476;8.310;2023-02-26T08:21:59;6.93;;;1.97;;
53299;SDS011;39187;48.476;8.310;2023-02-26T08:24:25;2.70;;;2.13;;
53299;SDS011;39187;48.476;8.310;2023-02-26T08:26:51;3.57;;;3.23;;
53299;SDS011;39187;48.476;8.310;2023-02-26T08:29:17;3.70;;;1.80;;
53299;SDS011;39187;48.476;8.310;2023-02-26T08:31:42;1.93;;;1.83;;
53299;SDS011;39187;48.476;8.310;2023-02-26T08:34:08;4.70;;;2.60;;
53299;SDS011;39187;48.476;8.310;2023-02-26T08:36:34;2.00;;;1.90;;
53299;SDS011;39187;48.476;8.310;2023-02-26T08:38:59;1.60;;;1.50;;
53299;SDS011;39187;48.476;8.310;2023-02-26T08:41:26;1.87;;;1.77;;
53299;SDS011;39187;48.476;8.310;2023-02-26T08:43:54;3.67;;;2.10;;
53299;SDS011;39187;48.476;8.310;2023-02-26T08:46:20;4.90;;;1.90;;
53299;SDS011;39187;48.476;8.310;2023-02-26T08:48:46;2.20;;;2.10;;
53299;SDS011;39187;48.476;8.310;2023-02-26T08:51:12;1.70;;;1.50;;
53299;SDS011;39187;48.476;8.310;2023-02-26T08:53:38;1.53;;;1.53;;
53299;SDS011;39187;48.476;8.310;2023-02-26T08:56:04;6.00;;;1.80;;
53299;SDS011;39187;48.476;8.310;2023-02-26T08:58:30;4.93;;;1.70;;
53299;SDS011;39187;48.476;8.310;2023-02-26T09:00:56;1.87;;;1.10;;
53299;SDS011;39187;48.476;8.310;2023-02-26T09:03:21;2.50;;;1.47;;
53299;SDS011;39187;48.476;8.310;2023-02-26T09:05:47;2.83;;;1.50;;
53299;SDS011;39187;48.476;8.310;2023-02-26T09:08:14;2.70;;;1.50;;
53299;SDS011;39187;48.476;8.310;2023-02-26T09:10:40;1.37;;;1.27;;
53299;SDS011;39187;48.476;8.310;2023-02-26T09:13:06;2.30;;;2.10;;
53299;SDS011;39187;48.476;8.310;2023-02-26T09:15:32;4.37;;;2.80;;
53299;SDS011;39187;48.476;8.310;2023-02-26T09:17:58;2.80;;;1.40;;
53299;SDS011;39187;48.476;8.310;2023-02-26T09:20:24;1.83;;;1.73;;
53299;SDS011;39187;48.476;8.310;2023-02-26T09:22:50;2.10;;;1.40;;
53299;SDS011;39187;48.476;8.310;2023-02-26T09:25:16;3.80;;;1.70;;
53299;SDS011;39187;48.476;8.310;2023-02-26T09:27:41;3.50;;;2.10;;
53299;SDS011;39187;48.476;8.310;2023-02-26T09:30:07;1.67;;;1.57;;
53299;SDS011;39187;48.476;8.310;2023-02-26T09:32:34;2.37;;;1.40;;
53299;SDS011;39187;48.476;8.310;2023-02-26T09:34:59;2.23;;;2.13;;
53299;SDS011;39187;48.476;8.310;2023-02-26T09:37:26;3.80;;;1.80;;
53299;SDS011;39187;48.476;8.310;2023-02-26T09:39:52;3.73;;;1.47;;
53299;SDS011;39187;48.476;8.310;2023-02-26T09:44:54;1.60;;;1.50;;
53299;SDS011;39187;48.476;8.310;2023-02-26T09:50:09;2.00;;;1.70;;
53299;SDS011;39187;48.476;8.310;2023-02-26T09:52:44;2.37;;;1.67;;
53299;SDS011;39187;48.476;8.310;2023-02-26T10:12:16;2.80;;;1.83;;
53299;SDS011;39187;48.476;8.310;2023-02-26T10:17:56;1.97;;;1.20;;
53299;SDS011;39187;48.476;8.310;2023-02-26T10:28:56;1.80;;;1.70;;
53299;SDS011;39187;48.476;8.310;2023-02-26T10:39:41;1.77;;;1.67;;
53299;SDS011;39187;48.476;8.310;2023-02-26T10:42:17;1.60;;;1.50;;
53299;SDS011;39187;48.476;8.310;2023-02-26T10:47:43;1.73;;;1.30;;
53299;SDS011;39187;48.476;8.310;2023-02-26T10:50:17;1.70;;;1.60;;
53299;SDS011;39187;48.476;8.310;2023-02-26T10:52:46;3.90;;;1.67;;
53299;SDS011;39187;48.476;8.310;2023-02-26T10:55:20;1.90;;;1.80;;
53299;SDS011;39187;48.476;8.310;2023-02-26T10:58:31;2.03;;;1.93;;
53299;SDS011;39187;48.476;8.310;2023-02-26T11:00:45;4.83;;;1.67;;
53299;SDS011;39187;48.476;8.310;2023-02-26T11:03:16;1.97;;;1.23;;
53299;SDS011;39187;48.476;8.310;2023-02-26T11:05:49;2.93;;;2.07;;
53299;SDS011;39187;48.476;8.310;2023-02-26T11:08:17;1.90;;;1.80;;
53299;SDS011;39187;48.476;8.310;2023-02-26T11:10:52;1.97;;;1.87;;
53299;SDS011;39187;48.476;8.310;2023-02-26T11:13:23;1.93;;;1.80;;
53299;SDS011;39187;48.476;8.310;2023-02-26T11:15:51;2.93;;;1.97;;
53299;SDS011;39187;48.476;8.310;2023-02-26T11:18:20;1.90;;;1.80;;
53299;SDS011;39187;48.476;8.310;2023-02-26T11:20:55;3.10;;;1.67;;
53299;SDS011;39187;48.476;8.310;2023-02-26T11:23:25;2.90;;;2.80;;
53299;SDS011;39187;48.476;8.310;2023-02-26T11:26:14;2.50;;;1.77;;
53299;SDS011;39187;48.476;8.310;2023-02-26T11:28:43;2.00;;;1.90;;
53299;SDS011;39187;48.476;8.310;2023-02-26T11:31:11;2.50;;;2.40;;
53299;SDS011;39187;48.476;8.310;2023-02-26T11:33:42;2.60;;;2.40;;
53299;SDS011;39187;48.476;8.310;2023-02-26T11:36:19;2.70;;;2.60;;
53299;SDS011;39187;48.476;8.310;2023-02-26T11:38:57;8.33;;;2.73;;
53299;SDS011;39187;48.476;8.310;2023-02-26T11:41:45;4.90;;;2.43;;
53299;SDS011;39187;48.476;8.310;2023-02-26T11:44:17;1.87;;;1.77;;
53299;SDS011;39187;48.476;8.310;2023-02-26T11:46:55;1.80;;;1.70;;
53299;SDS011;39187;48.476;8.310;2023-02-26T11:49:25;2.60;;;2.13;;
53299;SDS011;39187;48.476;8.310;2023-02-26T11:54:47;2.67;;;1.80;;
53299;SDS011;39187;48.476;8.310;2023-02-26T11:57:19;2.43;;;2.33;;
53299;SDS011;39187;48.476;8.310;2023-02-26T11:59:49;2.63;;;2.50;;
53299;SDS011;39187;48.476;8.310;2023-02-26T12:02:18;1.93;;;1.83;;
53299;SDS011;39187;48.476;8.310;2023-02-26T12:04:51;2.30;;;1.70;;
53299;SDS011;39187;48.476;8.310;2023-02-26T12:07:19;3.90;;;2.43;;
53299;SDS011;39187;48.476;8.310;2023-02-26T12:09:46;2.23;;;2.13;;
53299;SDS011;39187;48.476;8.310;2023-02-26T12:14:40;2.00;;;1.90;;
53299;SDS011;39187;48.476;8.310;2023-02-26T12:28:47;1.30;;;1.30;;
53299;SDS011;39187;48.476;8.310;2023-02-26T12:31:28;2.40;;;2.30;;
53299;SDS011;39187;48.476;8.310;2023-02-26T12:40:03;1.87;;;1.43;;
53299;SDS011;39187;48.476;8.310;2023-02-26T12:47:58;2.20;;;2.10;;
53299;SDS011;39187;48.476;8.310;2023-02-26T12:54:10;2.30;;;2.00;;
53299;SDS011;39187;48.476;8.310;2023-02-26T12:56:57;2.17;;;1.93;;
53299;SDS011;39187;48.476;8.310;2023-02-26T13:00:06;1.80;;;1.70;;
53299;SDS011;39187;48.476;8.310;2023-02-26T13:11:09;2.03;;;1.90;;
53299;SDS011;39187;48.476;8.310;2023-02-26T13:21:53;3.63;;;2.10;;
53299;SDS011;39187;48.476;8.310;2023-02-26T13:24:34;6.83;;;2.67;;
53299;SDS011;39187;48.476;8.310;2023-02-26T13:27:05;8.47;;;2.70;;
53299;SDS011;39187;48.476;8.310;2023-02-26T13:29:37;2.20;;;2.10;;
53299;SDS011;39187;48.476;8.310;2023-02-26T13:32:17;2.33;;;2.23;;
53299;SDS011;39187;48.476;8.310;2023-02-26T13:34:51;2.37;;;2.27;;
53299;SDS011;39187;48.476;8.310;2023-02-26T13:37:41;2.37;;;2.27;;
53299;SDS011;39187;48.476;8.310;2023-02-26T13:48:50;1.90;;;1.80;;
53299;SDS011;39187;48.476;8.310;2023-02-26T13:51:29;1.47;;;1.47;;
53299;SDS011;39187;48.476;8.310;2023-02-26T13:54:20;2.17;;;2.07;;
53299;SDS011;39187;48.476;8.310;2023-02-26T14:00:07;1.27;;;1.17;;
53299;SDS011;39187;48.476;8.310;2023-02-26T14:02:57;1.10;;;1.10;;
53299;SDS011;39187;48.476;8.310;2023-02-26T14:14:09;1.37;;;1.27;;
53299;SDS011;39187;48.476;8.310;2023-02-26T14:16:40;3.63;;;1.73;;
53299;SDS011;39187;48.476;8.310;2023-02-26T14:22:01;2.00;;;1.90;;
53299;SDS011;39187;48.476;8.310;2023-02-26T14:24:44;1.30;;;1.20;;
53299;SDS011;39187;48.476;8.310;2023-02-26T14:38:06;1.57;;;1.40;;
53299;SDS011;39187;48.476;8.310;2023-02-26T14:40:44;1.60;;;1.50;;
53299;SDS011;39187;48.476;8.310;2023-02-26T14:43:57;1.80;;;1.73;;
53299;SDS011;39187;48.476;8.310;2023-02-26T14:46:04;1.37;;;1.27;;
53299;SDS011;39187;48.476;8.310;2023-02-26T14:48:32;2.70;;;1.50;;
53299;SDS011;39187;48.476;8.310;2023-02-26T14:54:05;1.57;;;1.27;;
53299;SDS011;39187;48.476;8.310;2023-02-26T15:08:24;1.60;;;1.50;;
53299;SDS011;39187;48.476;8.310;2023-02-26T15:11:16;1.33;;;1.23;;
53299;SDS011;39187;48.476;8.310;2023-02-26T15:14:01;1.30;;;1.30;;
53299;SDS011;39187;48.476;8.310;2023-02-26T15:16:53;1.27;;;1.23;;
53299;SDS011;39187;48.476;8.310;2023-02-26T15:25:31;1.23;;;1.23;;
53299;SDS011;39187;48.476;8.310;2023-02-26T15:28:00;1.63;;;1.53;;
53299;SDS011;39187;48.476;8.310;2023-02-26T15:30:29;1.33;;;1.33;;
53299;SDS011;39187;48.476;8.310;2023-02-26T15:32:57;1.50;;;1.40;;
53299;SDS011;39187;48.476;8.310;2023-02-26T15:35:28;1.10;;;1.10;;
53299;SDS011;39187;48.476;8.310;2023-02-26T15:37:57;1.70;;;1.60;;
53299;SDS011;39187;48.476;8.310;2023-02-26T15:40:26;1.43;;;1.33;;
53299;SDS011;39187;48.476;8.310;2023-02-26T15:42:56;1.13;;;1.13;;
53299;SDS011;39187;48.476;8.310;2023-02-26T15:45:25;1.10;;;1.00;;
53299;SDS011;39187;48.476;8.310;2023-02-26T15:47:59;1.43;;;1.33;;
53299;SDS011;39187;48.476;8.310;2023-02-26T15:50:30;1.20;;;1.20;;
53299;SDS011;39187;48.476;8.310;2023-02-26T15:53:05;5.80;;;1.27;;
53299;SDS011;39187;48.476;8.310;2023-02-26T15:55:37;1.30;;;1.20;;
53299;SDS011;39187;48.476;8.310;2023-02-26T15:58:11;1.10;;;1.10;;
53299;SDS011;39187;48.476;8.310;2023-02-26T16:00:50;1.00;;;1.00;;
53299;SDS011;39187;48.476;8.310;2023-02-26T16:03:24;1.20;;;1.20;;
53299;SDS011;39187;48.476;8.310;2023-02-26T16:05:52;0.93;;;0.93;;
53299;SDS011;39187;48.476;8.310;2023-02-26T16:08:19;1.00;;;1.00;;
53299;SDS011;39187;48.476;8.310;2023-02-26T16:10:45;1.20;;;1.20;;
53299;SDS011;39187;48.476;8.310;2023-02-26T16:13:14;1.00;;;1.00;;
53299;SDS011;39187;48.476;8.310;2023-02-26T16:15:46;1.27;;;1.17;;
53299;SDS011;39187;48.476;8.310;2023-02-26T16:18:13;1.00;;;1.00;;
53299;SDS011;39187;48.476;8.310;2023-02-26T16:20:43;1.20;;;1.20;;
53299;SDS011;39187;48.476;8.310;2023-02-26T16:23:13;1.00;;;0.73;;
53299;SDS011;39187;48.476;8.310;2023-02-26T16:26:01;1.17;;;1.10;;
53299;SDS011;39187;48.476;8.310;2023-02-26T16:28:33;1.33;;;1.30;;
53299;SDS011;39187;48.476;8.310;2023-02-26T16:31:10;2.50;;;1.50;;
53299;SDS011;39187;48.476;8.310;2023-02-26T16:33:41;1.80;;;1.30;;
53299;SDS011;39187;48.476;8.310;2023-02-26T16:36:18;1.03;;;1.03;;
53299;SDS011;39187;48.476;8.310;2023-02-26T16:38:49;1.00;;;1.00;;
53299;SDS011;39187;48.476;8.310;2023-02-26T16:41:22;1.20;;;1.20;;
53299;SDS011;39187;48.476;8.310;2023-02-26T16:46:26;1.33;;;1.33;;
53299;SDS011;39187;48.476;8.310;2023-02-26T16:49:09;1.77;;;1.00;;
53299;SDS011;39187;48.476;8.310;2023-02-26T16:51:35;1.47;;;1.37;;
53299;SDS011;39187;48.476;8.310;2023-02-26T16:54:04;1.10;;;1.10;;
53299;SDS011;39187;48.476;8.310;2023-02-26T16:56:38;1.37;;;1.37;;
53299;SDS011;39187;48.476;8.310;2023-02-26T17:01:50;1.53;;;1.53;;
53299;SDS011;39187;48.476;8.310;2023-02-26T17:04:23;2.50;;;2.40;;
53299;SDS011;39187;48.476;8.310;2023-02-26T17:06:53;0.80;;;0.80;;
53299;SDS011;39187;48.476;8.310;2023-02-26T17:09:55;1.60;;;1.50;;
53299;SDS011;39187;48.476;8.310;2023-02-26T17:12:18;1.67;;;1.57;;
53299;SDS011;39187;48.476;8.310;2023-02-26T17:14:56;1.57;;;1.47;;
53299;SDS011;39187;48.476;8.310;2023-02-26T17:17:24;2.00;;;1.90;;
53299;SDS011;39187;48.476;8.310;2023-02-26T17:19:50;3.13;;;1.70;;
53299;SDS011;39187;48.476;8.310;2023-02-26T17:22:18;1.70;;;1.60;;
53299;SDS011;39187;48.476;8.310;2023-02-26T17:24:49;2.00;;;1.90;;
53299;SDS011;39187;48.476;8.310;2023-02-26T17:27:27;1.60;;;1.60;;
53299;SDS011;39187;48.476;8.310;2023-02-26T17:30:03;1.53;;;1.43;;
53299;SDS011;39187;48.476;8.310;2023-02-26T17:32:30;1.83;;;1.73;;
53299;SDS011;39187;48.476;8.310;2023-02-26T17:34:57;2.40;;;1.50;;
53299;SDS011;39187;48.476;8.310;2023-02-26T17:37:24;4.60;;;1.13;;
53299;SDS011;39187;48.476;8.310;2023-02-26T17:39:55;2.97;;;1.40;;
53299;SDS011;39187;48.476;8.310;2023-02-26T17:42:23;1.60;;;1.50;;
53299;SDS011;39187;48.476;8.310;2023-02-26T17:44:49;1.20;;;1.20;;
53299;SDS011;39187;48.476;8.310;2023-02-26T17:47:19;1.10;;;1.00;;
53299;SDS011;39187;48.476;8.310;2023-02-26T17:49:46;1.20;;;1.10;;
53299;SDS011;39187;48.476;8.310;2023-02-26T17:52:13;1.80;;;1.70;;
53299;SDS011;39187;48.476;8.310;2023-02-26T17:54:39;2.90;;;1.20;;
53299;SDS011;39187;48.476;8.310;2023-02-26T17:57:06;1.43;;;1.33;;
53299;SDS011;39187;48.476;8.310;2023-02-26T17:59:32;1.90;;;1.03;;
53299;SDS011;39187;48.476;8.310;2023-02-26T18:01:58;4.63;;;1.57;;
53299;SDS011;39187;48.476;8.310;2023-02-26T18:04:24;1.50;;;1.50;;
53299;SDS011;39187;48.476;8.310;2023-02-26T18:06:51;1.40;;;1.30;;
53299;SDS011;39187;48.476;8.310;2023-02-26T18:09:17;1.70;;;1.60;;
53299;SDS011;39187;48.476;8.310;2023-02-26T18:11:43;1.40;;;1.30;;
53299;SDS011;39187;48.476;8.310;2023-02-26T18:14:09;1.47;;;1.37;;
53299;SDS011;39187;48.476;8.310;2023-02-26T18:16:39;2.50;;;1.63;;
53299;SDS011;39187;48.476;8.310;2023-02-26T18:19:06;5.63;;;1.00;;